WetterOnline ( https://www.wetteronline.de )

Wetter aktuell Kassel

Aktuelles Wetter: Schauenburg-Elgershausen (317m)

6-stündlich | Neueste Meldungen
Ortszeit Temperatur Wetter
Mo, 26.02. 7:00 3.8° C bedeckt
Mo, 26.02. 1:00 1.5° C bewölkt
So, 25.02. 19:00 3.1° C leicht bewölkt
So, 25.02. 13:00 5.0° C bedeckt
So, 25.02. 7:00 4.6° C bedeckt
So, 25.02. 1:00 2.8° C bedeckt
Sa, 24.02. 19:00 4.6° C bewölkt
Sa, 24.02. 13:00 4.9° C bewölkt
Ortszeit Temperatur Wetter
Mo, 26.02. 11:30 7.4° C bedeckt
Mo, 26.02. 11:20 7.4° C bedeckt
Mo, 26.02. 11:10 7.5° C bedeckt
Mo, 26.02. 11:00 7.3° C bedeckt
Mo, 26.02. 10:50 7.3° C bedeckt
Mo, 26.02. 10:40 6.9° C bedeckt
Mo, 26.02. 10:30 6.7° C bedeckt
Mo, 26.02. 10:00 6.8° C bedeckt
Mo, 26.02. 9:30 6.2° C bedeckt
Mo, 26.02. 9:00 5.1° C bedeckt
Mo, 26.02. 8:30 5.2° C bedeckt
Ortszeit Relative Feuchte Sichtweite
Mo, 26.02. 7:00 74% >70 km
Mo, 26.02. 1:00 80% >70 km
So, 25.02. 19:00 81% 65 km
So, 25.02. 13:00 80% 55 km
So, 25.02. 7:00 66% 60 km
So, 25.02. 1:00 81% >70 km
Sa, 24.02. 19:00 71% >70 km
Sa, 24.02. 13:00 81% 50 km
Ortszeit Relative Feuchte Sichtweite
Mo, 26.02. 11:30 65% 40 km
Mo, 26.02. 11:20 65% -
Mo, 26.02. 11:10 65% -
Mo, 26.02. 11:00 67% 35 km
Mo, 26.02. 10:50 67% -
Mo, 26.02. 10:40 65% -
Mo, 26.02. 10:30 65% 40 km
Mo, 26.02. 10:00 66% 35 km
Mo, 26.02. 9:30 69% 45 km
Mo, 26.02. 9:00 72% 40 km
Mo, 26.02. 8:30 68% 55 km
Ortszeit Niederschlagsmenge Niederschlagsart
Mo, 26.02. 7:00 0.0 l/m2 in 12 Std. -
Mo, 26.02. 1:00 0.0 l/m2 in 6 Std. -
So, 25.02. 19:00 0.5 l/m2 in 12 Std. Regen
So, 25.02. 13:00 0.4 l/m2 in 6 Std. Regen
So, 25.02. 7:00 0.1 l/m2 in 12 Std. Regen
So, 25.02. 1:00 0.1 l/m2 in 6 Std. Regen
Sa, 24.02. 19:00 0.3 l/m2 in 12 Std. Regen
Sa, 24.02. 13:00 0.3 l/m2 in 6 Std. Regen
Ortszeit Niederschlagsmenge Niederschlagsart
Mo, 26.02. 11:30 0.0 l/m2 in 30 Min -
Mo, 26.02. 11:20 keine Meldung -
Mo, 26.02. 11:10 keine Meldung -
Mo, 26.02. 11:00 0.0 l/m2 in 1 Std. -
Mo, 26.02. 10:50 keine Meldung -
Mo, 26.02. 10:40 keine Meldung -
Mo, 26.02. 10:30 0.0 l/m2 in 30 Min -
Mo, 26.02. 10:00 0.0 l/m2 in 1 Std. -
Mo, 26.02. 9:30 0.0 l/m2 in 30 Min -
Mo, 26.02. 9:00 0.0 l/m2 in 1 Std. -
Mo, 26.02. 8:30 0.0 l/m2 in 30 Min -
Ortszeit Stärke Spitze Richtung
km/h Bft. km/h Grad Sektor
Mo, 26.02. 7:00 6 1 15 30° NO
Mo, 26.02. 1:00 4 1 7 330° NW
So, 25.02. 19:00 4 1 29 20° N
So, 25.02. 13:00 13 3 39 190° S
So, 25.02. 7:00 18 3 36 180° S
So, 25.02. 1:00 9 2 33 230° SW
Sa, 24.02. 19:00 17 3 37 180° S
Sa, 24.02. 13:00 22 4 40 190° S
Ortszeit Stärke Spitze Richtung
km/h Bft. km/h Grad Sektor
Mo, 26.02. 11:30 9 2 22 70° O
Mo, 26.02. 11:20 9 2 - 70° O
Mo, 26.02. 11:10 7 2 - 60° NO
Mo, 26.02. 11:00 7 2 24 90° O
Mo, 26.02. 10:50 7 2 - 90° O
Mo, 26.02. 10:40 7 2 - 60° NO
Mo, 26.02. 10:30 7 2 20 100° O
Mo, 26.02. 10:00 11 2 22 80° O
Mo, 26.02. 9:30 7 2 18 70° O
Mo, 26.02. 9:00 7 2 29 100° O
Mo, 26.02. 8:30 17 3 30 40° NO
Ortszeit Untergrenze Bedeckung Gattung
total tief tief mittel hoch
Mo, 26.02. 7:00 1800 m 8/8 8/8 - - -
Mo, 26.02. 1:00 3000 m 8/8 4/8 - - -
So, 25.02. 19:00 1500 m 4/8 2/8 - - -
So, 25.02. 13:00 420 m 8/8 8/8 - - -
So, 25.02. 7:00 1230 m 8/8 8/8 - - -
So, 25.02. 1:00 6000 m 8/8 8/8 - - -
Sa, 24.02. 19:00 1290 m 7/8 7/8 - - -
Sa, 24.02. 13:00 450 m 7/8 7/8 - - -
Ortszeit Bedeckungsgrad in Achtel und Wolkenuntergrenze
Mo, 26.02. 11:30 8(2400m) 8(5700m) 8(6600m)
Mo, 26.02. 11:20 8(2400m) 8(5700m) 8(6600m)
Mo, 26.02. 11:10 8
Mo, 26.02. 11:00 8(2400m) 8(3300m) 8(5700m)
Mo, 26.02. 10:50 8(2400m) 8(3300m) 8(5700m)
Mo, 26.02. 10:40 8
Mo, 26.02. 10:30 8(2400m) 8(3900m) 8(9000m)
Mo, 26.02. 10:00 6(1800m) 8(2400m) 8(4200m)
Mo, 26.02. 9:30 4(1800m) 8(2100m) 8(2700m)
Mo, 26.02. 9:00 5(1800m) 8(2100m) 8(2700m)
Mo, 26.02. 8:30 7(2100m) 8(2400m) 8(4800m)
Ortszeit Luftdruck NN (hPa) Tendenz (hPa in 3 Std.)
Mo, 26.02. 7:00 1001 + 0,1
Mo, 26.02. 1:00 1002 - 0,8
So, 25.02. 19:00 1004 - 0,3
So, 25.02. 13:00 1005 - 0,5
So, 25.02. 7:00 1004 - 0,7
So, 25.02. 1:00 1007 + 0,3
Sa, 24.02. 19:00 1005 + 1,9
Sa, 24.02. 13:00 1002 + 1,0
Ortszeit Luftdruck NN (hPa) Tendenz (hPa in 3 Std.)
Mo, 26.02. 11:30 1003 + 0,7
Mo, 26.02. 11:20 1003 keine Meldung
Mo, 26.02. 11:10 1002 keine Meldung
Mo, 26.02. 11:00 1003 + 1,0
Mo, 26.02. 10:50 1003 keine Meldung
Mo, 26.02. 10:40 1003 keine Meldung
Mo, 26.02. 10:30 1003 + 1,1
Mo, 26.02. 10:00 1002 + 1,5
Mo, 26.02. 9:30 1002 + 1,5
Mo, 26.02. 9:00 1003 + 1,4
Mo, 26.02. 8:30 1002 + 1,2
Ortszeit Schneehöhe (cm)
Mo, 26.02. 7:00 0
Mo, 26.02. 1:00 0
So, 25.02. 19:00 0
So, 25.02. 13:00 0
So, 25.02. 7:00 0
So, 25.02. 1:00 0
Sa, 24.02. 19:00 0
Sa, 24.02. 13:00 0
Ortszeit Schneehöhe (cm)
Mo, 26.02. 11:30 0
Mo, 26.02. 11:20 0
Mo, 26.02. 11:10 -
Mo, 26.02. 11:00 0
Mo, 26.02. 10:50 0
Mo, 26.02. 10:40 -
Mo, 26.02. 10:30 0
Mo, 26.02. 10:00 0
Mo, 26.02. 9:30 0
Mo, 26.02. 9:00 0
Mo, 26.02. 8:30 0
Link zu dieser Seite / Seite empfehlen

Das Wetter in ...